Urb Luquillo Mar, Puerto Rico
Current Conditions -  °F | °C
As of 4:53 PM on Monday 20 Oct 2014 (Local Time) from TJNR Reporting Station
Few Clouds Few Clouds  
Wind Chill: 82°   Ceiling: Unl
Heat Index: 89°   Visibility: 10mi
Dew Point: 75°   Wind: 5mph
Humidity: 79%   Direction: 100°E
Pressure: 29.94"   Gusts: NA
Location:  18.3744°N, 65.7168°W
Report Text: TJNR 202053Z AUTO 10004KT 10SM FEW049 FEW070 28/24 A2994 RMK AO2 RAB32E42 SLP139 P0000 60001 T02780239 53002
Loading
Personal Weather Stations






























Interactive Weather Map
Tropical Storm Tracking
New forecast layout! Learn more

10-Day Weather Forecast

Advertisements
Track Severe Weather on mobile